Time,TemperatureF,DewpointF,PressureIn,WindDirection,WindDirectionDegrees,WindSpeedMPH,WindSpeedGustMPH,Humidity,HourlyPrecipIn,Conditions,Clouds,dailyrainin,SoftwareType,DateUTC
2013-05-26 00:03:00,47.7,38.8,30.17,North,-999,0.0,0.0,71,0.00,,,-99.99,WeatherLink 5.7,2013-05-26 05:03:00,
2013-05-26 00:18:00,47.1,37.8,30.17,North,-999,0.0,0.0,70,0.00,,,-99.99,WeatherLink 5.7,2013-05-26 05:18:00,
2013-05-26 00:33:00,46.4,38.2,30.17,North,-999,0.0,0.0,73,0.00,,,-99.99,WeatherLink 5.7,2013-05-26 05:33:00,
2013-05-26 00:48:00,45.8,38.3,30.17,North,-999,0.0,0.0,75,0.00,,,-99.99,WeatherLink 5.7,2013-05-26 05:48:00,
2013-05-26 01:03:00,45.5,37.7,30.17,North,-999,0.0,0.0,74,0.00,,,-99.99,WeatherLink 5.7,2013-05-26 06:03:00,
2013-05-26 01:18:00,46.0,37.8,30.17,North,-999,0.0,0.0,73,0.00,,,-99.99,WeatherLink 5.7,2013-05-26 06:18:00,
2013-05-26 01:33:00,46.1,37.6,30.17,SE,135,0.0,1.0,72,0.00,,,-99.99,WeatherLink 5.7,2013-05-26 06:33:00,
2013-05-26 01:48:00,46.2,37.3,30.16,ESE,112,0.0,1.0,71,0.00,,,-99.99,WeatherLink 5.7,2013-05-26 06:48:00,
2013-05-26 02:03:00,46.0,37.1,30.15,ESE,112,0.0,1.0,71,0.00,,,-99.99,WeatherLink 5.7,2013-05-26 07:03:00,
2013-05-26 02:18:00,45.2,36.0,30.15,North,-999,0.0,0.0,70,0.00,,,-99.99,WeatherLink 5.7,2013-05-26 07:18:00,
2013-05-26 02:33:00,44.3,35.8,30.15,North,-999,0.0,0.0,72,0.00,,,-99.99,WeatherLink 5.7,2013-05-26 07:33:00,
2013-05-26 02:48:00,43.8,35.4,30.15,North,-999,0.0,0.0,72,0.00,,,-99.99,WeatherLink 5.7,2013-05-26 07:48:00,
2013-05-26 03:03:00,43.2,35.1,30.14,ESE,112,0.0,1.0,73,0.00,,,-99.99,WeatherLink 5.7,2013-05-26 08:03:00,
2013-05-26 03:18:00,42.8,34.4,30.14,North,-999,0.0,0.0,72,0.00,,,-99.99,WeatherLink 5.7,2013-05-26 08:18:00,
2013-05-26 03:33:00,42.9,34.1,30.14,North,-999,0.0,0.0,71,0.00,,,-99.99,WeatherLink 5.7,2013-05-26 08:33:00,
2013-05-26 03:48:00,43.3,34.2,30.14,ESE,112,0.0,1.0,70,0.00,,,-99.99,WeatherLink 5.7,2013-05-26 08:48:00,
2013-05-26 04:03:00,43.1,34.0,30.14,North,-999,0.0,0.0,70,0.00,,,-99.99,WeatherLink 5.7,2013-05-26 09:03:00,
2013-05-26 04:18:00,42.8,34.0,30.14,North,-999,0.0,0.0,71,0.00,,,-99.99,WeatherLink 5.7,2013-05-26 09:18:00,
2013-05-26 04:33:00,42.5,34.5,30.14,North,-999,0.0,0.0,73,0.00,,,-99.99,WeatherLink 5.7,2013-05-26 09:33:00,
2013-05-26 04:48:00,42.3,34.6,30.14,ESE,112,0.0,1.0,74,0.00,,,-99.99,WeatherLink 5.7,2013-05-26 09:48:00,
2013-05-26 05:03:00,42.6,34.9,30.15,North,-999,0.0,0.0,74,0.00,,,-99.99,WeatherLink 5.7,2013-05-26 10:03:00,
2013-05-26 05:18:00,42.6,35.2,30.14,North,-999,0.0,0.0,75,0.00,,,-99.99,WeatherLink 5.7,2013-05-26 10:18:00,
2013-05-26 05:33:00,42.3,35.3,30.14,North,-999,0.0,0.0,76,0.00,,,-99.99,WeatherLink 5.7,2013-05-26 10:33:00,
2013-05-26 05:48:00,42.1,35.4,30.14,ESE,112,0.0,1.0,77,0.00,,,-99.99,WeatherLink 5.7,2013-05-26 10:48:00,
2013-05-26 06:03:00,42.1,35.7,30.16,North,-999,0.0,0.0,78,0.00,,,-99.99,WeatherLink 5.7,2013-05-26 11:03:00,
2013-05-26 06:18:00,42.1,36.1,30.16,North,-999,0.0,0.0,79,0.00,,,-99.99,WeatherLink 5.7,2013-05-26 11:18:00,
2013-05-26 06:33:00,42.6,36.9,30.17,North,-999,0.0,0.0,80,0.00,,,-99.99,WeatherLink 5.7,2013-05-26 11:33:00,
2013-05-26 06:48:00,43.6,38.2,30.17,North,-999,0.0,0.0,81,0.00,,,-99.99,WeatherLink 5.7,2013-05-26 11:48:00,
2013-05-26 07:03:00,45.4,39.3,30.16,ESE,112,0.0,3.0,79,0.00,,,-99.99,WeatherLink 5.7,2013-05-26 12:03:00,
2013-05-26 07:18:00,46.5,39.3,30.15,ESE,112,0.0,2.0,76,0.00,,,-99.99,WeatherLink 5.7,2013-05-26 12:18:00,
2013-05-26 07:33:00,47.4,39.9,30.17,North,-999,0.0,0.0,75,0.00,,,-99.99,WeatherLink 5.7,2013-05-26 12:33:00,
2013-05-26 07:48:00,48.2,39.9,30.16,ESE,112,0.0,3.0,73,0.00,,,-99.99,WeatherLink 5.7,2013-05-26 12:48:00,
2013-05-26 08:03:00,50.5,39.9,30.16,ESE,112,0.0,7.0,67,0.00,,,-99.99,WeatherLink 5.7,2013-05-26 13:03:00,
2013-05-26 08:18:00,53.3,39.8,30.16,ESE,112,1.0,7.0,60,0.00,,,-99.99,WeatherLink 5.7,2013-05-26 13:18:00,
2013-05-26 08:33:00,55.1,41.0,30.15,ESE,112,1.0,10.0,59,0.00,,,-99.99,WeatherLink 5.7,2013-05-26 13:33:00,
2013-05-26 08:48:00,56.5,41.9,30.14,ESE,112,1.0,7.0,58,0.00,,,-99.99,WeatherLink 5.7,2013-05-26 13:48:00,
2013-05-26 09:03:00,57.0,40.5,30.13,ESE,112,1.0,7.0,54,0.00,,,-99.99,WeatherLink 5.7,2013-05-26 14:03:00,
2013-05-26 09:18:00,58.0,41.0,30.13,ESE,112,1.0,10.0,53,0.00,,,-99.99,WeatherLink 5.7,2013-05-26 14:18:00,
2013-05-26 09:33:00,59.0,42.4,30.13,SE,135,1.0,9.0,54,0.00,,,-99.99,WeatherLink 5.7,2013-05-26 14:33:00,
2013-05-26 09:48:00,59.9,42.2,30.13,SSE,157,0.0,7.0,52,0.00,,,-99.99,WeatherLink 5.7,2013-05-26 14:48:00,
2013-05-26 10:03:00,60.5,43.8,30.14,SE,135,1.0,7.0,54,0.00,,,-99.99,WeatherLink 5.7,2013-05-26 15:03:00,
2013-05-26 10:18:00,60.5,43.3,30.13,SE,135,1.0,12.0,53,0.00,,,-99.99,WeatherLink 5.7,2013-05-26 15:18:00,
2013-05-26 10:33:00,61.0,45.2,30.13,ESE,112,0.0,6.0,56,0.00,,,-99.99,WeatherLink 5.7,2013-05-26 15:33:00,
2013-05-26 10:48:00,62.1,44.3,30.13,SSE,157,1.0,6.0,52,0.00,,,-99.99,WeatherLink 5.7,2013-05-26 15:48:00,
2013-05-26 11:03:00,62.9,44.0,30.13,SE,135,2.0,11.0,50,0.00,,,-99.99,WeatherLink 5.7,2013-05-26 16:03:00,
2013-05-26 11:18:00,63.7,43.6,30.13,SE,135,2.0,12.0,48,0.00,,,-99.99,WeatherLink 5.7,2013-05-26 16:18:00,
2013-05-26 11:33:00,64.8,44.6,30.12,SE,135,1.0,13.0,48,0.00,,,-99.99,WeatherLink 5.7,2013-05-26 16:33:00,
2013-05-26 11:48:00,65.0,44.8,30.11,SE,135,1.0,10.0,48,0.00,,,-99.99,WeatherLink 5.7,2013-05-26 16:48:00,
2013-05-26 12:03:00,65.2,46.6,30.11,SSE,157,1.0,15.0,51,0.00,,,-99.99,WeatherLink 5.7,2013-05-26 17:03:00,
2013-05-26 12:18:00,65.2,46.6,30.11,SE,135,1.0,12.0,51,0.00,,,-99.99,WeatherLink 5.7,2013-05-26 17:18:00,
2013-05-26 12:33:00,64.7,46.1,30.10,ESE,112,2.0,13.0,51,0.00,,,-99.99,WeatherLink 5.7,2013-05-26 17:33:00,
2013-05-26 12:48:00,65.5,45.3,30.10,SE,135,1.0,11.0,48,0.00,,,-99.99,WeatherLink 5.7,2013-05-26 17:48:00,
2013-05-26 13:03:00,65.8,46.1,30.10,SSE,157,1.0,7.0,49,0.00,,,-99.99,WeatherLink 5.7,2013-05-26 18:03:00,
2013-05-26 13:18:00,65.3,47.2,30.10,SE,135,0.0,4.0,52,0.00,,,-99.99,WeatherLink 5.7,2013-05-26 18:18:00,
2013-05-26 13:33:00,65.0,45.4,30.10,SE,135,0.0,4.0,49,0.00,,,-99.99,WeatherLink 5.7,2013-05-26 18:33:00,
2013-05-26 13:48:00,64.0,47.0,30.10,SE,135,0.0,4.0,54,0.00,,,-99.99,WeatherLink 5.7,2013-05-26 18:48:00,
2013-05-26 14:03:00,63.4,47.4,30.10,ESE,112,0.0,10.0,56,0.00,,,-99.99,WeatherLink 5.7,2013-05-26 19:03:00,
2013-05-26 14:18:00,62.7,45.8,30.10,South,180,0.0,4.0,54,0.00,,,-99.99,WeatherLink 5.7,2013-05-26 19:18:00,
2013-05-26 14:33:00,61.5,47.5,30.10,SSE,157,0.0,5.0,60,0.00,,,-99.99,WeatherLink 5.7,2013-05-26 19:33:00,
2013-05-26 14:48:00,60.4,48.2,30.10,SE,135,0.0,5.0,64,0.00,,,-99.99,WeatherLink 5.7,2013-05-26 19:48:00,
2013-05-26 15:03:00,60.5,49.1,30.09,SE,135,0.0,1.0,66,0.00,,,-99.99,WeatherLink 5.7,2013-05-26 20:03:00,
2013-05-26 15:18:00,60.1,49.5,30.09,SE,135,0.0,3.0,68,0.00,,,-99.99,WeatherLink 5.7,2013-05-26 20:18:00,
2013-05-26 15:33:00,58.9,49.9,30.08,SE,135,0.0,1.0,72,0.01,,,-99.99,WeatherLink 5.7,2013-05-26 20:33:00,
2013-05-26 15:48:00,58.1,50.9,30.09,North,-999,0.0,0.0,77,0.02,,,-99.99,WeatherLink 5.7,2013-05-26 20:48:00,
2013-05-26 16:03:00,57.3,52.2,30.06,SE,135,0.0,1.0,83,0.03,,,-99.99,WeatherLink 5.7,2013-05-26 21:03:00,
2013-05-26 16:18:00,56.6,52.5,30.06,SE,135,0.0,4.0,86,0.04,,,-99.99,WeatherLink 5.7,2013-05-26 21:18:00,
2013-05-26 16:33:00,57.2,53.4,30.06,SE,135,0.0,5.0,87,0.03,,,-99.99,WeatherLink 5.7,2013-05-26 21:33:00,
2013-05-26 16:48:00,57.5,53.7,30.07,ESE,112,0.0,6.0,87,0.02,,,-99.99,WeatherLink 5.7,2013-05-26 21:48:00,
2013-05-26 17:03:00,57.8,54.0,30.07,South,180,0.0,1.0,87,0.01,,,-99.99,WeatherLink 5.7,2013-05-26 22:03:00,
2013-05-26 17:18:00,58.3,54.4,30.06,ESE,112,0.0,4.0,87,0.00,,,-99.99,WeatherLink 5.7,2013-05-26 22:18:00,
2013-05-26 17:33:00,58.3,53.8,30.06,ESE,112,1.0,7.0,85,0.00,,,-99.99,WeatherLink 5.7,2013-05-26 22:33:00,
2013-05-26 17:48:00,58.4,52.9,30.06,ESE,112,1.0,7.0,82,0.00,,,-99.99,WeatherLink 5.7,2013-05-26 22:48:00,
2013-05-26 18:03:00,58.4,52.9,30.06,ESE,112,0.0,6.0,82,0.00,,,-99.99,WeatherLink 5.7,2013-05-26 23:03:00,
2013-05-26 18:18:00,58.3,52.8,30.05,SE,135,0.0,5.0,82,0.00,,,-99.99,WeatherLink 5.7,2013-05-26 23:18:00,
2013-05-26 18:33:00,58.4,52.6,30.04,ESE,112,0.0,6.0,81,0.00,,,-99.99,WeatherLink 5.7,2013-05-26 23:33:00,
2013-05-26 18:48:00,58.4,52.6,30.04,ESE,112,0.0,5.0,81,0.00,,,-99.99,WeatherLink 5.7,2013-05-26 23:48:00,
2013-05-26 19:03:00,58.3,52.5,30.03,ESE,112,0.0,4.0,81,0.00,,,-99.99,WeatherLink 5.7,2013-05-27 00:03:00,
2013-05-26 19:18:00,58.1,52.0,30.02,SE,135,1.0,9.0,80,0.00,,,-99.99,WeatherLink 5.7,2013-05-27 00:18:00,
2013-05-26 19:33:00,58.3,52.5,30.02,SE,135,0.0,5.0,81,0.00,,,-99.99,WeatherLink 5.7,2013-05-27 00:33:00,
2013-05-26 19:48:00,58.1,52.6,30.02,NE,45,0.0,3.0,82,0.00,,,-99.99,WeatherLink 5.7,2013-05-27 00:48:00,
2013-05-26 20:03:00,57.5,52.0,30.02,SE,135,0.0,5.0,82,0.00,,,-99.99,WeatherLink 5.7,2013-05-27 01:03:00,
2013-05-26 20:18:00,57.0,51.6,30.02,ESE,112,0.0,7.0,82,0.00,,,-99.99,WeatherLink 5.7,2013-05-27 01:18:00,
2013-05-26 20:33:00,56.5,50.7,30.02,ESE,112,1.0,7.0,81,0.00,,,-99.99,WeatherLink 5.7,2013-05-27 01:33:00,
2013-05-26 20:48:00,55.9,50.5,30.03,SE,135,0.0,5.0,82,0.00,,,-99.99,WeatherLink 5.7,2013-05-27 01:48:00,
2013-05-26 21:03:00,55.3,49.9,30.02,ESE,112,0.0,4.0,82,0.00,,,-99.99,WeatherLink 5.7,2013-05-27 02:03:00,
2013-05-26 21:19:00,55.0,50.3,30.01,ESE,112,0.0,4.0,84,0.02,,,-99.99,WeatherLink 5.7,2013-05-27 02:19:00,
2013-05-26 21:34:00,54.1,50.3,30.01,ESE,112,0.0,6.0,87,0.02,,,-99.99,WeatherLink 5.7,2013-05-27 02:34:00,
2013-05-26 21:48:00,53.8,50.3,30.02,ESE,112,0.0,3.0,88,0.02,,,-99.99,WeatherLink 5.7,2013-05-27 02:48:00,
2013-05-26 22:03:00,53.5,50.0,30.02,ESE,112,0.0,3.0,88,0.02,,,-99.99,WeatherLink 5.7,2013-05-27 03:03:00,
2013-05-26 22:18:00,53.3,50.1,30.01,ESE,112,0.0,2.0,89,0.00,,,-99.99,WeatherLink 5.7,2013-05-27 03:18:00,
2013-05-26 22:33:00,53.1,49.9,30.01,ESE,112,0.0,3.0,89,0.01,,,-99.99,WeatherLink 5.7,2013-05-27 03:33:00,
2013-05-26 22:48:00,52.8,49.6,30.01,SE,135,0.0,5.0,89,0.01,,,-99.99,WeatherLink 5.7,2013-05-27 03:48:00,
2013-05-26 23:03:00,52.9,49.7,30.02,ESE,112,0.0,5.0,89,0.01,,,-99.99,WeatherLink 5.7,2013-05-27 04:03:00,
2013-05-26 23:18:00,52.9,49.7,30.02,SSE,157,0.0,2.0,89,0.01,,,-99.99,WeatherLink 5.7,2013-05-27 04:18:00,
2013-05-26 23:33:00,52.9,49.7,30.01,SE,135,0.0,5.0,89,0.00,,,-99.99,WeatherLink 5.7,2013-05-27 04:33:00,
2013-05-26 23:48:00,52.5,49.4,30.01,East,90,0.0,4.0,89,0.01,,,-99.99,WeatherLink 5.7,2013-05-27 04:48:00,